Currently 61°F in Temecula, California, USA
61°F
61°F / 50°F
calm
0.00"
Monday, January 20, 2020 1:00 PM PST

Temecula, California Weather Summary
Last 36 Hours

Temperature Winds Hourly Humidity Dewpoint
Time Report Norm Report Norm Max Gusts Precip. Rpt. Norm Rpt. Norm Pressure
1,2Mon 01:00 PM  61.2°F  67°F  calm  4 mph  7 mph  0.00"  59%  42%  46°F  42°F  30.02"
Mon 12:00 PM  59.8°F  64°F  2 mph S  4 mph  13 mph  0.00"  62%  48%  46°F  43°F  30.06"
Mon 11:00 AM  60.1°F  60°F  4 mph SW  3 mph  11 mph  0.00"  60%  56%  46°F  43°F  30.10"
Mon 10:00 AM  56.8°F  54°F  1 mph S  2 mph  5 mph  0.00"  64%  67%  44°F  43°F  30.10"
Mon 09:00 AM  52.2°F  48°F  1 mph SE  1 mph  3 mph  0.00"  76%  78%  45°F  41°F  30.10"
Mon 08:00 AM  49.8°F  44°F  1 mph NE  1 mph  4 mph  0.00"  80%  84%  44°F  39°F  30.09"
Mon 07:00 AM  49.7°F  43°F  1 mph E  1 mph  4 mph  0.00"  81%  85%  44°F  38°F  30.09"
Mon 06:00 AM  49.7°F  43°F  2 mph E  1 mph  5 mph  0.00"  80%  84%  44°F  38°F  30.06"
3Mon 05:10 AM  49.5°F  44°F  2 mph NW  1 mph  3 mph  ----  79%  83%  43°F  39°F  30.03"
Mon 05:00 AM  49.7°F  44°F  calm  1 mph  4 mph  0.00"  78%  83%  43°F  39°F  30.03"
Mon 04:00 AM  50.7°F  44°F  calm  1 mph  3 mph  0.00"  73%  82%  42°F  39°F  30.04"
Mon 03:00 AM  51.8°F  45°F  1 mph E  1 mph  5 mph  0.00"  69%  80%  42°F  39°F  30.06"
Mon 02:00 AM  53.2°F  46°F  calm  1 mph  6 mph  0.00"  66%  79%  42°F  40°F  30.06"
Mon 01:00 AM  54.8°F  47°F  4 mph S  1 mph  8 mph  0.00"  61%  77%  41°F  40°F  30.04"
Mon 12:00 AM  54.4°F  48°F  4 mph S  1 mph  6 mph  0.00"  63%  75%  41°F  40°F  30.06"
Sun 11:00 PM  56.0°F  49°F  5 mph E  1 mph  6 mph  0.00"  60%  73%  42°F  41°F  30.05"
Sun 10:00 PM  58.3°F  51°F  3 mph NE  1 mph  7 mph  0.00"  54%  71%  41°F  41°F  30.07"
Sun 09:00 PM  59.4°F  52°F  4 mph SW  1 mph  9 mph  0.00"  48%  69%  39°F  42°F  30.06"
Sun 08:00 PM  59.5°F  54°F  3 mph S  1 mph  6 mph  0.00"  50%  67%  40°F  43°F  30.06"
Sun 07:00 PM  60.2°F  56°F  calm  2 mph  4 mph  0.00"  50%  62%  41°F  43°F  30.04"
Sun 06:00 PM  63.0°F  59°F  2 mph NE  3 mph  5 mph  0.00"  45%  58%  40°F  43°F  30.05"
Sun 05:00 PM  66.2°F  62°F  1 mph E  3 mph  4 mph  0.00"  40%  51%  40°F  43°F  30.04"
Sun 04:00 PM  68.3°F  66°F  3 mph S  5 mph  8 mph  0.00"  37%  45%  40°F  43°F  30.02"
Sun 03:00 PM  70.7°F  68°F  1 mph S  5 mph  14 mph  0.00"  36%  41%  41°F  42°F  30.03"
Sun 02:00 PM  78.4°F  68°F  8 mph SW  5 mph  14 mph  0.00"  25%  40%  38°F  42°F  30.00"
Sun 01:00 PM  80.7°F  67°F  3 mph S  4 mph  19 mph  0.00"  22%  42%  36°F  42°F  30.00"
Sun 12:00 PM  78.9°F  64°F  7 mph NE  4 mph  14 mph  0.00"  21%  48%  34°F  43°F  30.05"
Sun 11:00 AM  73.7°F  59°F  2 mph E  3 mph  10 mph  0.00"  25%  56%  35°F  43°F  30.09"
Sun 10:00 AM  60.6°F  54°F  2 mph S  2 mph  8 mph  0.00"  46%  67%  39°F  42°F  30.13"
Sun 09:00 AM  52.2°F  47°F  calm  1 mph  6 mph  0.00"  57%  78%  37°F  41°F  30.13"
Sun 08:00 AM  46.1°F  43°F  calm  1 mph  6 mph  0.00"  62%  84%  33°F  39°F  30.14"
Sun 07:00 AM  44.1°F  42°F  calm  1 mph  6 mph  0.00"  64%  85%  32°F  38°F  30.13"
Sun 06:00 AM  44.6°F  43°F  4 mph W  1 mph  9 mph  0.00"  64%  84%  33°F  38°F  30.12"
Sun 05:00 AM  43.0°F  43°F  2 mph NW  1 mph  6 mph  0.00"  70%  83%  34°F  38°F  30.11"
Sun 04:00 AM  43.6°F  44°F  1 mph NE  1 mph  5 mph  0.00"  69%  82%  34°F  39°F  30.12"
Sun 03:00 AM  44.5°F  45°F  1 mph N  1 mph  8 mph  0.00"  68%  81%  34°F  39°F  30.13"
Sun 02:00 AM  45.3°F  46°F  calm  1 mph  7 mph  0.00"  67%  79%  34°F  39°F  30.15"

  1. Current weather data. No green row appears if the current weather data is also the high or low for the current day.
  2. High temperature for the current day.
  3. Low temperature for the current day.

The Temecula weather pages are a service of WeatherCurrents. Temecula, California is located in the Temecula Valley, in southwestern Riverside County, along the Interstate 15 highway. The Temecula Valley's rolling hills are home to the Temecula wine country, vineyards, golf courses, a casino resort, and Old Town Temecula.
Copyright ©2020  WeatherCurrents. All rights reserved. - Submit questions and comments - Privacy Policy

This page automatically refreshes every 10 minutes.